createdAt,value
2018-06-16T00:02:12.158Z,1.97
2018-06-16T00:04:40.417Z,2.10
2018-06-16T00:07:08.671Z,1.97
2018-06-16T00:09:36.933Z,2.10
2018-06-16T00:12:05.207Z,2.20
2018-06-16T00:14:33.508Z,2.00
2018-06-16T00:17:01.778Z,2.20
2018-06-16T00:19:30.009Z,2.30
2018-06-16T00:21:58.249Z,2.30
2018-06-16T00:24:26.488Z,2.07
2018-06-16T00:26:54.760Z,2.00
2018-06-16T00:29:22.998Z,2.33
2018-06-16T00:31:51.249Z,2.00
2018-06-16T00:34:19.508Z,2.10
2018-06-16T00:36:47.769Z,1.77
2018-06-16T00:39:16.009Z,2.10
2018-06-16T00:41:44.290Z,1.77
2018-06-16T00:44:12.290Z,2.20
2018-06-16T00:46:40.520Z,2.00
2018-06-16T00:49:08.899Z,2.33
2018-06-16T00:51:37.160Z,2.30
2018-06-16T00:54:05.457Z,2.03
2018-06-16T00:56:33.729Z,2.37
2018-06-16T00:59:01.986Z,2.27
2018-06-16T01:01:30.216Z,2.20
2018-06-16T01:03:58.491Z,2.40
2018-06-16T01:06:26.732Z,2.80
2018-06-16T01:08:55.025Z,2.00
2018-06-16T01:11:23.285Z,2.10
2018-06-16T01:13:51.565Z,2.20
2018-06-16T01:16:19.825Z,2.40
2018-06-16T01:18:48.126Z,2.87
2018-06-16T01:21:16.393Z,2.63
2018-06-16T01:23:44.669Z,2.60
2018-06-16T01:26:12.970Z,2.43
2018-06-16T01:28:41.223Z,2.37
2018-06-16T01:31:09.513Z,2.13
2018-06-16T01:33:37.760Z,2.23
2018-06-16T01:36:06.060Z,2.23
2018-06-16T01:38:34.460Z,2.33
2018-06-16T01:41:02.753Z,2.23
2018-06-16T01:43:31.013Z,2.30
2018-06-16T01:45:59.277Z,2.50
2018-06-16T01:48:27.536Z,2.47
2018-06-16T01:50:55.876Z,2.27
2018-06-16T01:53:24.176Z,2.17
2018-06-16T01:55:52.473Z,2.10
2018-06-16T01:58:20.756Z,1.80
2018-06-16T02:00:49.046Z,2.47
2018-06-16T02:03:17.320Z,2.40
2018-06-16T02:05:45.575Z,2.53
2018-06-16T02:08:13.855Z,2.40
2018-06-16T02:10:42.140Z,2.20
2018-06-16T02:13:10.397Z,2.30
2018-06-16T02:15:38.695Z,1.90
2018-06-16T02:18:06.928Z,2.30
2018-06-16T02:20:35.334Z,2.27
2018-06-16T02:23:03.612Z,2.20
2018-06-16T02:25:32.243Z,2.50
2018-06-16T02:28:00.473Z,2.30
2018-06-16T02:30:28.776Z,2.43
2018-06-16T02:32:57.052Z,2.60
2018-06-16T02:35:25.344Z,2.60
2018-06-16T02:37:53.682Z,2.40
2018-06-16T02:40:21.992Z,2.83
2018-06-16T02:42:50.308Z,2.60
2018-06-16T02:45:18.574Z,2.47
2018-06-16T02:47:46.850Z,2.63
2018-06-16T02:50:15.251Z,2.53
2018-06-16T02:52:43.404Z,2.73
2018-06-16T02:55:11.633Z,2.70
2018-06-16T02:57:39.871Z,2.20
2018-06-16T03:00:08.135Z,2.47
2018-06-16T03:02:36.415Z,2.50
2018-06-16T03:05:04.688Z,2.87
2018-06-16T03:07:32.965Z,2.60
2018-06-16T03:10:01.261Z,2.33
2018-06-16T03:12:29.556Z,2.60
2018-06-16T03:14:57.828Z,2.60
2018-06-16T03:17:26.081Z,2.73
2018-06-16T03:19:54.345Z,2.97
2018-06-16T03:22:22.644Z,2.50
2018-06-16T03:24:50.921Z,2.70
2018-06-16T03:27:19.196Z,2.63
2018-06-16T03:29:47.517Z,2.90
2018-06-16T03:32:15.800Z,2.60
2018-06-16T03:34:44.069Z,2.37
2018-06-16T03:37:12.308Z,2.70
2018-06-16T03:39:40.596Z,3.00
2018-06-16T03:42:08.838Z,3.60
2018-06-16T03:44:36.864Z,3.20
2018-06-16T03:47:05.088Z,2.90
2018-06-16T03:49:33.355Z,2.90
2018-06-16T03:52:01.638Z,3.27
2018-06-16T03:54:29.919Z,3.00
2018-06-16T03:56:58.190Z,3.03
2018-06-16T03:59:26.565Z,3.30
2018-06-16T04:01:54.927Z,2.60
2018-06-16T04:04:23.125Z,3.20
2018-06-16T04:06:51.412Z,3.03
2018-06-16T04:09:19.636Z,3.27
2018-06-16T04:11:47.911Z,3.47
2018-06-16T04:14:16.374Z,3.30
2018-06-16T04:16:44.655Z,3.30
2018-06-16T04:19:12.884Z,2.83
2018-06-16T04:21:41.155Z,3.43
2018-06-16T04:24:09.453Z,3.10
2018-06-16T04:26:37.744Z,3.47
2018-06-16T04:29:06.224Z,3.17
2018-06-16T04:31:35.297Z,3.30
2018-06-16T04:34:03.528Z,3.03
2018-06-16T04:36:31.784Z,3.23
2018-06-16T04:39:00.025Z,3.90
2018-06-16T04:41:28.290Z,4.30
2018-06-16T04:43:56.566Z,3.47
2018-06-16T04:46:24.874Z,3.67
2018-06-16T04:48:53.119Z,3.23
2018-06-16T04:51:21.403Z,3.50
2018-06-16T04:53:49.657Z,3.37
2018-06-16T04:56:17.970Z,3.90
2018-06-16T04:58:46.236Z,4.13
2018-06-16T05:01:14.504Z,3.70
2018-06-16T05:03:42.747Z,3.40
2018-06-16T05:06:11.015Z,3.90
2018-06-16T05:08:39.290Z,4.17
2018-06-16T05:11:07.505Z,4.27
2018-06-16T05:13:35.758Z,4.37
2018-06-16T05:16:04.108Z,4.40
2018-06-16T05:18:32.355Z,3.90
2018-06-16T05:21:00.582Z,4.17
2018-06-16T05:23:28.858Z,4.00
2018-06-16T05:25:57.130Z,4.37
2018-06-16T05:28:25.393Z,4.77
2018-06-16T05:30:53.664Z,4.63
2018-06-16T05:33:21.925Z,4.70
2018-06-16T05:35:50.336Z,4.50
2018-06-16T05:38:18.639Z,4.07
2018-06-16T05:40:46.922Z,4.87
2018-06-16T05:43:15.225Z,4.40
2018-06-16T05:45:43.960Z,4.73
2018-06-16T05:48:12.232Z,4.90
2018-06-16T05:50:40.492Z,5.20
2018-06-16T05:53:08.773Z,5.30
2018-06-16T05:55:37.029Z,4.90
2018-06-16T05:58:05.320Z,4.93
2018-06-16T06:00:33.652Z,5.17
2018-06-16T06:03:01.883Z,4.70
2018-06-16T06:05:30.106Z,5.20
2018-06-16T06:07:58.388Z,5.90
2018-06-16T06:10:26.775Z,6.20
2018-06-16T06:12:54.610Z,5.10
2018-06-16T06:15:22.833Z,5.60
2018-06-16T06:17:51.097Z,5.73
2018-06-16T06:20:19.354Z,5.63
2018-06-16T06:22:47.633Z,5.47
2018-06-16T06:25:15.885Z,5.33
2018-06-16T06:27:43.907Z,5.80
2018-06-16T06:30:12.200Z,5.83
2018-06-16T06:32:40.515Z,5.60
2018-06-16T06:35:08.767Z,5.63
2018-06-16T06:37:37.039Z,5.37
2018-06-16T06:40:05.578Z,5.77
2018-06-16T06:42:33.843Z,5.43
2018-06-16T06:45:02.406Z,6.33
2018-06-16T06:47:30.703Z,5.63
2018-06-16T06:49:58.944Z,6.10
2018-06-16T06:52:27.235Z,6.33
2018-06-16T06:54:55.465Z,6.50
2018-06-16T06:57:23.738Z,6.40
2018-06-16T06:59:52.014Z,6.30
2018-06-16T07:02:20.268Z,5.57
2018-06-16T07:04:48.504Z,6.03
2018-06-16T07:07:16.761Z,6.13
2018-06-16T07:09:45.186Z,8.57
2018-06-16T07:12:13.488Z,5.83
2018-06-16T07:14:41.747Z,6.17
2018-06-16T07:17:10.215Z,5.60
2018-06-16T07:19:38.718Z,8.33
2018-06-16T07:22:06.987Z,6.57
2018-06-16T07:24:35.683Z,71.90
2018-06-16T07:27:04.004Z,142.40
2018-06-16T07:29:32.275Z,37.40
2018-06-16T07:32:00.537Z,11.67
2018-06-16T07:34:28.796Z,6.00
2018-06-16T07:36:57.060Z,5.77
2018-06-16T07:39:25.364Z,24.83
2018-06-16T07:41:53.605Z,7.03
2018-06-16T07:44:21.881Z,6.10
2018-06-16T07:46:50.144Z,5.97
2018-06-16T07:49:18.405Z,16.30
2018-06-16T07:51:46.614Z,5.87
2018-06-16T07:54:14.869Z,5.17
2018-06-16T07:56:43.174Z,5.07
2018-06-16T07:59:11.439Z,6.07
2018-06-16T08:01:39.700Z,12.03
2018-06-16T08:04:07.992Z,7.77
2018-06-16T08:06:36.306Z,5.90
2018-06-16T08:09:06.908Z,5.83
2018-06-16T08:11:35.216Z,5.23
2018-06-16T08:14:03.525Z,15.33
2018-06-16T08:16:31.760Z,6.30
2018-06-16T08:19:00.033Z,5.67
2018-06-16T08:21:28.295Z,7.03
2018-06-16T08:23:56.573Z,11.07
2018-06-16T08:26:25.022Z,6.30
2018-06-16T08:28:53.317Z,5.40
2018-06-16T08:31:21.594Z,5.73
2018-06-16T08:33:49.851Z,5.17
2018-06-16T08:36:18.168Z,6.47
2018-06-16T08:38:46.400Z,5.50
2018-06-16T08:41:14.732Z,4.90
2018-06-16T08:43:43.029Z,5.50
2018-06-16T08:46:12.044Z,5.43
2018-06-16T08:48:40.520Z,5.20
2018-06-16T08:51:08.792Z,5.67
2018-06-16T08:53:37.260Z,5.20
2018-06-16T08:56:05.793Z,4.57
2018-06-16T08:58:34.137Z,5.50
2018-06-16T09:01:02.352Z,5.80
2018-06-16T09:03:30.606Z,5.60
2018-06-16T09:05:58.965Z,5.20
2018-06-16T09:08:27.033Z,5.73
2018-06-16T09:10:55.012Z,6.00
2018-06-16T09:13:23.279Z,5.33
2018-06-16T09:15:51.540Z,5.50
2018-06-16T09:18:19.784Z,4.60
2018-06-16T09:20:48.069Z,5.30
2018-06-16T09:23:16.334Z,5.80
2018-06-16T09:25:44.760Z,5.50
2018-06-16T09:28:12.992Z,5.77
2018-06-16T09:30:41.260Z,5.57
2018-06-16T09:33:09.941Z,4.27
2018-06-16T09:35:38.238Z,4.90
2018-06-16T09:38:06.657Z,5.00
2018-06-16T09:40:34.905Z,5.13
2018-06-16T09:43:03.316Z,5.20
2018-06-16T09:45:31.634Z,5.37
2018-06-16T09:47:59.868Z,5.53
2018-06-16T09:50:28.185Z,5.97
2018-06-16T09:52:56.424Z,5.40
2018-06-16T09:55:24.672Z,5.33
2018-06-16T09:57:52.989Z,5.17
2018-06-16T10:00:28.355Z,4.87
2018-06-16T10:02:56.948Z,5.43
2018-06-16T10:05:25.224Z,5.97
2018-06-16T10:07:54.353Z,5.20
2018-06-16T10:10:22.615Z,11.70
2018-06-16T10:12:50.866Z,7.63
2018-06-16T10:15:19.226Z,6.47
2018-06-16T10:17:47.583Z,6.50
2018-06-16T10:20:16.137Z,6.60
2018-06-16T10:22:44.521Z,8.30
2018-06-16T10:25:12.810Z,6.93
2018-06-16T10:27:41.141Z,11.70
2018-06-16T10:30:09.809Z,6.90
2018-06-16T10:32:38.344Z,6.13
2018-06-16T10:35:06.600Z,5.47
2018-06-16T10:37:35.034Z,5.67
2018-06-16T10:40:03.495Z,5.27
2018-06-16T10:42:31.789Z,5.20
2018-06-16T10:45:00.173Z,5.20
2018-06-16T10:47:28.480Z,5.37
2018-06-16T10:49:56.708Z,5.33
2018-06-16T10:52:25.167Z,5.83
2018-06-16T10:54:53.513Z,5.50
2018-06-16T10:57:21.822Z,4.73
2018-06-16T10:59:50.224Z,5.03
2018-06-16T11:02:18.510Z,4.60
2018-06-16T11:04:46.756Z,4.40
2018-06-16T11:07:15.029Z,4.67
2018-06-16T11:09:43.347Z,4.10
2018-06-16T11:12:11.790Z,5.10
2018-06-16T11:14:47.406Z,6.00
2018-06-16T11:17:15.957Z,6.53
2018-06-16T11:19:44.278Z,7.70
2018-06-16T11:22:12.606Z,9.40
2018-06-16T11:24:40.834Z,8.30
2018-06-16T11:27:09.064Z,11.97
2018-06-16T11:29:37.404Z,11.30
2018-06-16T11:32:05.904Z,11.50
2018-06-16T11:34:34.141Z,11.73
2018-06-16T11:37:02.125Z,13.33
2018-06-16T11:39:30.405Z,13.30
2018-06-16T11:41:58.636Z,14.63
2018-06-16T11:44:26.929Z,13.93
2018-06-16T11:46:55.187Z,15.17
2018-06-16T11:49:23.710Z,16.50
2018-06-16T11:51:52.340Z,15.67
2018-06-16T11:54:20.650Z,14.50
2018-06-16T11:56:48.927Z,15.47
2018-06-16T11:59:17.271Z,14.80
2018-06-16T12:01:45.530Z,14.27
2018-06-16T12:04:13.757Z,16.63
2018-06-16T12:06:42.086Z,18.23
2018-06-16T12:09:11.999Z,16.00
2018-06-16T12:11:40.310Z,16.97
2018-06-16T12:14:09.370Z,17.47
2018-06-16T12:16:37.933Z,16.00
2018-06-16T12:19:06.520Z,15.93
2018-06-16T12:21:34.813Z,18.33
2018-06-16T12:24:03.088Z,15.50
2018-06-16T12:26:31.370Z,15.50
2018-06-16T12:28:59.752Z,16.20
2018-06-16T12:31:28.025Z,15.60
2018-06-16T12:33:56.266Z,17.43
2018-06-16T12:36:24.267Z,17.73
2018-06-16T12:38:52.531Z,16.60
2018-06-16T12:41:20.813Z,15.93
2018-06-16T12:43:49.096Z,13.10
2018-06-16T12:46:17.688Z,13.00
2018-06-16T12:48:45.984Z,11.53
2018-06-16T12:51:14.341Z,11.20
2018-06-16T12:53:42.817Z,12.47
2018-06-16T12:56:11.100Z,12.07
2018-06-16T12:58:39.358Z,11.77
2018-06-16T13:01:07.603Z,13.10
2018-06-16T13:03:35.917Z,12.67
2018-06-16T13:06:04.255Z,12.87
2018-06-16T13:08:32.255Z,12.07
2018-06-16T13:11:00.512Z,10.47
2018-06-16T13:13:28.860Z,11.10
2018-06-16T13:15:57.127Z,12.03
2018-06-16T13:18:25.381Z,7.67
2018-06-16T13:20:53.656Z,8.70
2018-06-16T13:23:22.066Z,7.37
2018-06-16T13:25:50.314Z,7.77
2018-06-16T13:28:18.589Z,8.63
2018-06-16T13:30:46.852Z,12.70
2018-06-16T13:33:15.105Z,9.03
2018-06-16T13:35:43.376Z,7.00
2018-06-16T13:38:11.609Z,5.70
2018-06-16T13:40:39.870Z,6.50
2018-06-16T13:43:08.153Z,6.90
2018-06-16T13:45:36.421Z,7.00
2018-06-16T13:48:04.736Z,8.07
2018-06-16T13:50:32.732Z,7.90
2018-06-16T13:53:01.133Z,8.60
2018-06-16T13:55:29.505Z,7.23
2018-06-16T13:57:57.972Z,8.00
2018-06-16T14:00:26.489Z,12.53
2018-06-16T14:02:54.796Z,9.90
2018-06-16T14:05:23.041Z,7.10
2018-06-16T14:07:51.326Z,8.43
2018-06-16T14:10:19.573Z,8.20
2018-06-16T14:12:47.889Z,7.70
2018-06-16T14:15:16.212Z,8.20
2018-06-16T14:17:45.030Z,8.13
2018-06-16T14:20:13.303Z,7.50
2018-06-16T14:22:43.401Z,8.53
2018-06-16T14:25:12.961Z,8.23
2018-06-16T14:27:41.228Z,8.37
2018-06-16T14:30:09.496Z,7.27
2018-06-16T14:32:37.733Z,8.40
2018-06-16T14:35:06.370Z,7.70
2018-06-16T14:37:34.633Z,8.30
2018-06-16T14:40:02.903Z,8.07
2018-06-16T14:42:31.169Z,7.00
2018-06-16T14:44:59.528Z,7.53
2018-06-16T14:47:27.957Z,9.10
2018-06-16T14:49:56.236Z,7.20
2018-06-16T14:52:24.506Z,7.00
2018-06-16T14:54:52.810Z,7.20
2018-06-16T14:57:21.141Z,7.13
2018-06-16T14:59:49.408Z,6.83
2018-06-16T15:02:17.684Z,7.73
2018-06-16T15:04:46.143Z,6.93
2018-06-16T15:07:14.346Z,7.47
2018-06-16T15:09:42.347Z,7.40
2018-06-16T15:12:10.665Z,7.13
2018-06-16T15:14:39.176Z,6.30
2018-06-16T15:17:07.474Z,5.60
2018-06-16T15:19:35.766Z,6.63
2018-06-16T15:22:04.044Z,5.90
2018-06-16T15:24:32.321Z,6.07
2018-06-16T15:27:00.628Z,5.23
2018-06-16T15:29:28.928Z,4.80
2018-06-16T15:31:57.212Z,4.30
2018-06-16T15:34:25.493Z,4.40
2018-06-16T15:36:53.776Z,5.20
2018-06-16T15:39:22.048Z,5.00
2018-06-16T15:41:50.324Z,4.40
2018-06-16T15:44:18.620Z,6.30
2018-06-16T15:46:47.004Z,5.27
2018-06-16T15:49:15.216Z,7.27
2018-06-16T15:51:43.491Z,5.23
2018-06-16T15:54:11.773Z,6.03
2018-06-16T15:56:40.079Z,6.20
2018-06-16T15:59:08.388Z,7.70
2018-06-16T16:01:36.645Z,5.90
2018-06-16T16:04:04.932Z,6.23
2018-06-16T16:06:33.232Z,5.47
2018-06-16T16:09:01.497Z,5.33
2018-06-16T16:11:29.872Z,4.57
2018-06-16T16:13:58.229Z,5.63
2018-06-16T16:16:26.506Z,4.50
2018-06-16T16:18:54.947Z,6.17
2018-06-16T16:21:23.297Z,5.40
2018-06-16T16:23:51.545Z,5.40
2018-06-16T16:26:19.817Z,6.60
2018-06-16T16:28:48.161Z,6.20
2018-06-16T16:31:16.541Z,6.43
2018-06-16T16:33:44.832Z,4.40
2018-06-16T16:36:13.136Z,4.77
2018-06-16T16:38:41.412Z,4.23
2018-06-16T16:41:09.677Z,4.17
2018-06-16T16:43:38.173Z,5.83
2018-06-16T16:46:06.448Z,5.00
2018-06-16T16:48:34.711Z,5.33
2018-06-16T16:51:03.066Z,6.20
2018-06-16T16:53:31.364Z,5.50
2018-06-16T16:55:59.760Z,5.77
2018-06-16T16:58:28.037Z,5.70
2018-06-16T17:00:56.378Z,4.47
2018-06-16T17:03:24.611Z,4.30
2018-06-16T17:05:52.869Z,4.43
2018-06-16T17:08:21.156Z,3.93
2018-06-16T17:10:49.381Z,3.77
2018-06-16T17:13:17.520Z,4.63
2018-06-16T17:15:45.788Z,6.50
2018-06-16T17:18:14.020Z,4.70
2018-06-16T17:20:42.396Z,5.30
2018-06-16T17:23:10.662Z,4.83
2018-06-16T17:25:38.892Z,4.23
2018-06-16T17:28:07.243Z,5.00
2018-06-16T17:30:35.686Z,3.73
2018-06-16T17:33:10.342Z,3.70
2018-06-16T17:35:38.615Z,5.40
2018-06-16T17:38:07.110Z,5.90
2018-06-16T17:40:35.385Z,3.77
2018-06-16T17:43:03.665Z,3.67
2018-06-16T17:45:31.941Z,2.97
2018-06-16T17:48:00.213Z,3.50
2018-06-16T17:50:28.506Z,2.87
2018-06-16T17:52:56.814Z,3.60
2018-06-16T17:55:25.112Z,3.13
2018-06-16T17:57:53.385Z,3.40
2018-06-16T18:00:21.763Z,3.47
2018-06-16T18:02:50.013Z,4.23
2018-06-16T18:05:18.269Z,6.17
2018-06-16T18:07:46.528Z,6.80
2018-06-16T18:10:14.932Z,7.90
2018-06-16T18:12:43.260Z,7.30
2018-06-16T18:15:11.681Z,7.70
2018-06-16T18:17:40.038Z,8.60
2018-06-16T18:20:08.620Z,10.33
2018-06-16T18:22:36.990Z,10.67
2018-06-16T18:25:05.356Z,11.07
2018-06-16T18:27:33.626Z,9.90
2018-06-16T18:30:01.902Z,10.73
2018-06-16T18:32:30.209Z,10.43
2018-06-16T18:34:58.505Z,10.70
2018-06-16T18:37:26.745Z,9.97
2018-06-16T18:39:55.094Z,10.17
2018-06-16T18:42:23.368Z,9.83
2018-06-16T18:44:51.685Z,10.50
2018-06-16T18:47:19.978Z,10.27
2018-06-16T18:49:48.309Z,9.60
2018-06-16T18:52:16.529Z,10.00
2018-06-16T18:54:44.824Z,9.87
2018-06-16T18:57:13.150Z,10.67
2018-06-16T18:59:41.426Z,9.60
2018-06-16T19:02:09.676Z,9.70
2018-06-16T19:04:37.957Z,10.97
2018-06-16T19:07:06.292Z,11.47
2018-06-16T19:09:34.287Z,11.40
2018-06-16T19:12:02.657Z,12.83
2018-06-16T19:14:31.120Z,12.70
2018-06-16T19:16:59.422Z,10.93
2018-06-16T19:19:27.668Z,10.30
2018-06-16T19:21:56.344Z,10.70
2018-06-16T19:24:24.610Z,10.23
2018-06-16T19:26:52.901Z,10.80
2018-06-16T19:29:21.172Z,9.80
2018-06-16T19:31:49.446Z,9.67
2018-06-16T19:34:17.808Z,9.37
2018-06-16T19:36:46.201Z,9.80
2018-06-16T19:39:14.476Z,10.40
2018-06-16T19:41:42.764Z,11.00
2018-06-16T19:44:11.068Z,11.23
2018-06-16T19:46:39.329Z,11.43
2018-06-16T19:49:08.085Z,10.30
2018-06-16T19:51:37.121Z,10.80
2018-06-16T19:54:05.508Z,9.70
2018-06-16T19:56:33.788Z,9.53
2018-06-16T19:59:02.029Z,10.30
2018-06-16T20:01:30.445Z,10.60
2018-06-16T20:03:58.701Z,10.00
2018-06-16T20:06:26.977Z,11.23
2018-06-16T20:08:55.252Z,10.13
2018-06-16T20:11:23.549Z,9.83
2018-06-16T20:13:51.788Z,10.90
2018-06-16T20:16:20.095Z,11.17
2018-06-16T20:18:48.361Z,9.87
2018-06-16T20:21:16.705Z,11.43
2018-06-16T20:23:44.996Z,10.07
2018-06-16T20:26:13.336Z,10.87
2018-06-16T20:28:41.681Z,10.73
2018-06-16T20:31:09.948Z,10.23
2018-06-16T20:33:38.236Z,11.17
2018-06-16T20:36:07.809Z,11.03
2018-06-16T20:38:36.096Z,10.87
2018-06-16T20:41:04.397Z,10.93
2018-06-16T20:43:32.684Z,11.27
2018-06-16T20:46:00.942Z,9.97
2018-06-16T20:48:29.236Z,10.67
2018-06-16T20:50:57.500Z,11.40
2018-06-16T20:53:25.820Z,11.67
2018-06-16T20:55:54.117Z,12.90
2018-06-16T20:58:22.336Z,12.40
2018-06-16T21:00:50.621Z,13.07
2018-06-16T21:03:22.319Z,11.20
2018-06-16T21:05:50.621Z,12.10
2018-06-16T21:08:18.910Z,12.03
2018-06-16T21:10:47.172Z,13.07
2018-06-16T21:13:15.436Z,12.80
2018-06-16T21:15:43.765Z,15.07
2018-06-16T21:18:12.097Z,17.00
2018-06-16T21:20:40.543Z,16.17
2018-06-16T21:23:08.785Z,15.20
2018-06-16T21:25:37.034Z,14.30
2018-06-16T21:28:05.316Z,14.73
2018-06-16T21:30:33.860Z,15.10
2018-06-16T21:33:02.129Z,15.83
2018-06-16T21:35:30.859Z,15.63
2018-06-16T21:37:59.198Z,15.07
2018-06-16T21:40:27.459Z,15.23
2018-06-16T21:42:55.743Z,16.53
2018-06-16T21:45:23.993Z,16.20
2018-06-16T21:47:54.090Z,14.83
2018-06-16T21:50:25.143Z,15.93
2018-06-16T21:52:53.461Z,15.33
2018-06-16T21:55:21.857Z,15.70
2018-06-16T21:57:50.115Z,15.90
2018-06-16T22:00:18.394Z,16.13
2018-06-16T22:02:46.979Z,15.17
2018-06-16T22:05:15.220Z,15.20
2018-06-16T22:07:43.474Z,16.30
2018-06-16T22:10:11.764Z,16.17
2018-06-16T22:12:40.145Z,15.03
2018-06-16T22:15:08.537Z,15.30
2018-06-16T22:17:36.916Z,16.20
2018-06-16T22:20:05.216Z,16.20
2018-06-16T22:22:33.488Z,16.70
2018-06-16T22:25:01.763Z,15.40
2018-06-16T22:27:30.324Z,16.40
2018-06-16T22:29:58.592Z,15.60
2018-06-16T22:32:26.896Z,16.00
2018-06-16T22:34:55.173Z,16.83
2018-06-16T22:37:23.498Z,16.97
2018-06-16T22:39:51.804Z,19.17
2018-06-16T22:42:20.052Z,18.40
2018-06-16T22:44:48.373Z,20.53
2018-06-16T22:47:16.649Z,20.70
2018-06-16T22:49:44.928Z,21.33
2018-06-16T22:52:13.196Z,20.33
2018-06-16T22:54:41.485Z,21.37
2018-06-16T22:57:09.784Z,21.33
2018-06-16T22:59:38.028Z,22.03
2018-06-16T23:02:06.324Z,21.57
2018-06-16T23:04:34.605Z,23.27
2018-06-16T23:07:02.837Z,24.20
2018-06-16T23:09:31.145Z,22.37
2018-06-16T23:11:59.421Z,25.87
2018-06-16T23:14:27.671Z,25.47
2018-06-16T23:16:56.016Z,26.40
2018-06-16T23:19:24.239Z,26.33
2018-06-16T23:21:52.529Z,27.77
2018-06-16T23:24:20.786Z,29.30
2018-06-16T23:26:49.064Z,29.00
2018-06-16T23:29:17.331Z,29.70
2018-06-16T23:31:45.693Z,29.77
2018-06-16T23:34:13.966Z,30.07
2018-06-16T23:36:42.224Z,30.60
2018-06-16T23:39:12.276Z,32.97
2018-06-16T23:41:40.843Z,31.67
2018-06-16T23:44:09.103Z,32.60
2018-06-16T23:46:37.516Z,32.47
2018-06-16T23:49:05.986Z,34.33
2018-06-16T23:51:34.364Z,33.47
2018-06-16T23:54:02.664Z,36.07
2018-06-16T23:56:30.934Z,38.77
2018-06-16T23:58:59.186Z,37.87
